Decoded Metar for KMYJ ( in ) (IATA:) | Meteo·Mobile Aviation Weather
aviador You're here:

KMYJ Decoded Metar

in
Report Time2018-11-12 17:55:00
UTC Time2018-11-12 17:57:38
Flight Rules lifr LIFR
Wind340° at 08 kt
W.Decomp.*RWY 36: 7.5 kt HW 2.7 kt LCW
RWY 06: 1.4 kt HW 7.9 kt LCW
W.Rank340° ranks 21
Current wind is above 340° avg. (7.1)
Visibility1207 m
Phenomena:Light Snow
Clouds:Overcast 006 Hf
Expected CloudBase > 400 ft AGL from Temp-Dew spread
Ceiling600 ft
Temp-2°C
Dew Point-3°C (93% RH)
AAT-7.3°C
QNH1029 hPa
Raw Report
KMYJ 121755Z AUTO 34008KT 3/4SM -SN OVC006 M02/M03 A3039 RMK
AO2=

Extra information for KMYJ:More info

Social comments